createdAt,value
2018-08-17T00:01:49.176Z,16.06
2018-08-17T00:04:51.549Z,16.05
2018-08-17T00:07:53.800Z,16.08
2018-08-17T00:10:56.060Z,15.97
2018-08-17T00:13:58.232Z,15.82
2018-08-17T00:17:00.515Z,15.82
2018-08-17T00:20:02.854Z,15.83
2018-08-17T00:23:05.201Z,15.88
2018-08-17T00:26:07.578Z,15.86
2018-08-17T00:29:09.844Z,15.81
2018-08-17T00:32:12.100Z,15.68
2018-08-17T00:35:14.612Z,15.62
2018-08-17T00:38:16.859Z,15.62
2018-08-17T00:41:19.277Z,15.64
2018-08-17T00:44:21.500Z,15.62
2018-08-17T00:47:23.672Z,15.61
2018-08-17T00:50:25.954Z,15.56
2018-08-17T00:53:28.216Z,15.59
2018-08-17T00:56:30.529Z,15.58
2018-08-17T00:59:32.877Z,15.54
2018-08-17T01:02:35.155Z,15.54
2018-08-17T01:05:37.438Z,15.48
2018-08-17T01:08:39.666Z,15.40
2018-08-17T01:11:41.965Z,15.33
2018-08-17T01:14:44.171Z,15.31
2018-08-17T01:17:46.522Z,15.29
2018-08-17T01:20:48.862Z,15.27
2018-08-17T01:23:51.351Z,15.19
2018-08-17T01:26:53.723Z,15.12
2018-08-17T01:29:56.189Z,14.99
2018-08-17T01:32:58.450Z,14.83
2018-08-17T01:36:00.744Z,14.81
2018-08-17T01:39:04.336Z,14.73
2018-08-17T01:42:06.634Z,14.51
2018-08-17T01:45:08.862Z,14.48
2018-08-17T01:48:12.174Z,14.51
2018-08-17T01:51:14.364Z,14.54
2018-08-17T01:54:16.529Z,14.60
2018-08-17T01:57:18.849Z,14.64
2018-08-17T02:00:21.090Z,14.61
2018-08-17T02:03:23.319Z,14.66
2018-08-17T02:06:25.557Z,14.75
2018-08-17T02:09:27.777Z,14.80
2018-08-17T02:12:30.163Z,14.83
2018-08-17T02:15:32.420Z,14.80
2018-08-17T02:18:34.729Z,14.80
2018-08-17T02:21:37.018Z,14.69
2018-08-17T02:24:39.256Z,14.63
2018-08-17T02:27:42.571Z,14.60
2018-08-17T02:30:44.791Z,14.41
2018-08-17T02:33:46.991Z,14.38
2018-08-17T02:36:49.480Z,14.41
2018-08-17T02:39:51.748Z,14.40
2018-08-17T02:42:53.963Z,14.39
2018-08-17T02:45:56.186Z,14.42
2018-08-17T02:48:58.381Z,14.49
2018-08-17T02:52:00.670Z,14.55
2018-08-17T02:55:02.982Z,14.60
2018-08-17T02:58:05.233Z,14.64
2018-08-17T03:01:07.534Z,14.65
2018-08-17T03:04:09.712Z,14.67
2018-08-17T03:07:12.056Z,14.63
2018-08-17T03:10:20.980Z,14.56
2018-08-17T03:13:23.263Z,14.54
2018-08-17T03:16:25.461Z,14.52
2018-08-17T03:19:27.670Z,14.53
2018-08-17T03:22:29.938Z,14.61
2018-08-17T03:25:32.252Z,14.57
2018-08-17T03:28:34.456Z,14.51
2018-08-17T03:31:36.761Z,14.32
2018-08-17T03:34:38.979Z,14.17
2018-08-17T03:37:41.180Z,14.22
2018-08-17T03:40:43.618Z,14.25
2018-08-17T03:43:45.792Z,14.30
2018-08-17T03:46:48.161Z,14.26
2018-08-17T03:49:50.509Z,14.23
2018-08-17T03:52:52.730Z,14.25
2018-08-17T03:55:54.990Z,14.27
2018-08-17T03:58:57.385Z,14.26
2018-08-17T04:01:59.729Z,14.26
2018-08-17T04:05:02.097Z,14.23
2018-08-17T04:08:05.368Z,14.22
2018-08-17T04:11:07.545Z,14.22
2018-08-17T04:14:09.912Z,14.24
2018-08-17T04:17:12.182Z,14.21
2018-08-17T04:20:14.388Z,14.10
2018-08-17T04:23:16.609Z,13.84
2018-08-17T04:26:18.847Z,13.55
2018-08-17T04:29:21.086Z,13.60
2018-08-17T04:32:23.228Z,13.75
2018-08-17T04:35:25.551Z,13.78
2018-08-17T04:38:27.840Z,13.76
2018-08-17T04:41:30.159Z,13.81
2018-08-17T04:44:32.402Z,13.89
2018-08-17T04:47:34.594Z,14.03
2018-08-17T04:50:36.851Z,14.16
2018-08-17T04:53:39.162Z,14.33
2018-08-17T04:56:41.335Z,14.64
2018-08-17T04:59:43.485Z,14.90
2018-08-17T05:02:45.711Z,15.71
2018-08-17T05:05:47.907Z,17.43
2018-08-17T05:08:50.167Z,19.03
2018-08-17T05:11:52.377Z,20.30
2018-08-17T05:14:54.646Z,20.64
2018-08-17T05:17:56.852Z,21.28
2018-08-17T05:20:59.089Z,22.20
2018-08-17T05:24:01.326Z,23.29
2018-08-17T05:27:04.225Z,23.86
2018-08-17T05:30:06.413Z,24.31
2018-08-17T05:33:08.696Z,24.76
2018-08-17T05:36:11.095Z,25.93
2018-08-17T05:39:13.412Z,25.88
2018-08-17T05:42:15.725Z,26.35
2018-08-17T05:45:17.920Z,25.34
2018-08-17T05:48:20.125Z,26.05
2018-08-17T05:51:22.363Z,26.00
2018-08-17T05:54:24.647Z,26.87
2018-08-17T05:57:26.931Z,26.06
2018-08-17T06:00:29.185Z,25.37
2018-08-17T06:03:31.510Z,23.90
2018-08-17T06:06:34.465Z,24.33
2018-08-17T06:09:36.801Z,25.27
2018-08-17T06:12:38.980Z,24.37
2018-08-17T06:15:41.211Z,25.66
2018-08-17T06:18:43.442Z,25.69
2018-08-17T06:21:45.647Z,25.73
2018-08-17T06:24:48.825Z,25.22
2018-08-17T06:27:51.058Z,24.29
2018-08-17T06:30:53.380Z,22.76
2018-08-17T06:33:55.610Z,23.11
2018-08-17T06:36:57.791Z,24.20
2018-08-17T06:40:00.006Z,23.96
2018-08-17T06:43:02.286Z,21.56
2018-08-17T06:46:04.518Z,21.67
2018-08-17T06:49:06.805Z,21.04
2018-08-17T06:52:09.038Z,22.12
2018-08-17T06:55:11.990Z,22.44
2018-08-17T06:58:14.272Z,22.50
2018-08-17T07:01:16.593Z,22.60
2018-08-17T07:04:18.805Z,22.33
2018-08-17T07:07:21.113Z,23.06
2018-08-17T07:10:23.402Z,23.01
2018-08-17T07:13:25.759Z,22.47
2018-08-17T07:16:27.982Z,21.77
2018-08-17T07:19:30.470Z,21.38
2018-08-17T07:22:34.619Z,21.34
2018-08-17T07:25:36.832Z,20.96
2018-08-17T07:28:39.088Z,21.38
2018-08-17T07:31:41.354Z,20.90
2018-08-17T07:34:43.645Z,20.67
2018-08-17T07:37:45.837Z,21.20
2018-08-17T07:40:48.045Z,21.37
2018-08-17T07:43:50.353Z,22.07
2018-08-17T07:46:52.531Z,21.91
2018-08-17T07:49:54.734Z,21.40
2018-08-17T07:52:56.918Z,21.67
2018-08-17T07:55:59.141Z,21.28
2018-08-17T07:59:01.484Z,21.27
2018-08-17T08:02:03.731Z,20.92
2018-08-17T08:05:07.161Z,21.46
2018-08-17T08:08:09.511Z,20.89
2018-08-17T08:11:11.763Z,21.01
2018-08-17T08:14:14.042Z,20.96
2018-08-17T08:17:16.182Z,20.99
2018-08-17T08:20:29.536Z,21.10
2018-08-17T08:23:31.565Z,21.42
2018-08-17T08:26:33.760Z,21.02
2018-08-17T08:29:36.171Z,21.55
2018-08-17T08:32:39.594Z,22.12
2018-08-17T08:35:41.771Z,21.95
2018-08-17T08:38:43.968Z,22.07
2018-08-17T08:41:46.370Z,22.78
2018-08-17T08:44:48.644Z,22.47
2018-08-17T08:47:50.936Z,22.57
2018-08-17T08:50:53.168Z,22.59
2018-08-17T08:53:55.465Z,22.76
2018-08-17T08:56:57.965Z,22.97
2018-08-17T09:00:00.161Z,23.60
2018-08-17T09:03:02.345Z,23.57
2018-08-17T09:06:04.679Z,23.90
2018-08-17T09:09:07.479Z,24.14
2018-08-17T09:12:09.742Z,24.87
2018-08-17T09:15:12.456Z,25.04
2018-08-17T09:18:14.700Z,25.13
2018-08-17T09:21:17.069Z,24.94
2018-08-17T09:24:19.220Z,24.27
2018-08-17T09:27:21.430Z,24.58
2018-08-17T09:30:24.743Z,24.11
2018-08-17T09:33:26.925Z,24.45
2018-08-17T09:36:29.148Z,24.70
2018-08-17T09:39:31.402Z,24.90
2018-08-17T09:42:33.673Z,25.40
2018-08-17T09:45:36.228Z,26.14
2018-08-17T09:48:38.567Z,25.63
2018-08-17T09:51:40.854Z,25.52
2018-08-17T09:54:43.204Z,25.09
2018-08-17T09:57:45.478Z,25.27
2018-08-17T10:00:53.510Z,26.17
2018-08-17T10:04:01.578Z,26.35
2018-08-17T10:07:10.381Z,27.19
2018-08-17T10:10:16.611Z,26.91
2018-08-17T10:13:18.836Z,26.30
2018-08-17T10:16:21.090Z,26.34
2018-08-17T10:19:23.358Z,26.23
2018-08-17T10:22:25.559Z,27.12
2018-08-17T10:25:27.823Z,27.75
2018-08-17T10:28:30.074Z,28.22
2018-08-17T10:31:32.360Z,27.34
2018-08-17T10:34:34.560Z,27.70
2018-08-17T10:37:36.746Z,27.51
2018-08-17T10:40:39.240Z,27.50
2018-08-17T10:43:41.437Z,28.25
2018-08-17T10:46:43.762Z,28.74
2018-08-17T10:49:45.960Z,29.20
2018-08-17T10:52:50.650Z,28.84
2018-08-17T10:55:52.866Z,28.38
2018-08-17T10:58:55.173Z,27.97
2018-08-17T11:01:58.436Z,27.93
2018-08-17T11:05:00.692Z,28.45
2018-08-17T11:08:03.044Z,28.84
2018-08-17T11:11:06.475Z,27.61
2018-08-17T11:14:08.709Z,27.59
2018-08-17T11:17:11.042Z,27.86
2018-08-17T11:20:14.503Z,27.80
2018-08-17T11:23:17.119Z,27.63
2018-08-17T11:26:19.284Z,27.62
2018-08-17T11:29:21.449Z,28.01
2018-08-17T11:32:23.706Z,29.11
2018-08-17T11:35:25.957Z,29.84
2018-08-17T11:38:28.306Z,29.92
2018-08-17T11:41:30.711Z,28.97
2018-08-17T11:44:32.851Z,28.60
2018-08-17T11:47:35.149Z,28.63
2018-08-17T11:50:37.412Z,28.82
2018-08-17T11:53:39.638Z,29.24
2018-08-17T11:56:41.942Z,28.72
2018-08-17T11:59:48.791Z,29.43
2018-08-17T12:02:51.097Z,29.62
2018-08-17T12:05:53.373Z,29.39
2018-08-17T12:08:55.757Z,29.46
2018-08-17T12:11:57.999Z,29.74
2018-08-17T12:15:00.583Z,29.84
2018-08-17T12:18:02.884Z,28.91
2018-08-17T12:21:05.240Z,29.21
2018-08-17T12:24:07.640Z,28.75
2018-08-17T12:27:11.042Z,29.07
2018-08-17T12:30:13.324Z,29.07
2018-08-17T12:33:15.547Z,29.47
2018-08-17T12:36:17.897Z,30.07
2018-08-17T12:39:20.455Z,29.03
2018-08-17T12:42:22.851Z,28.47
2018-08-17T12:45:57.473Z,28.09
2018-08-17T12:48:59.764Z,27.99
2018-08-17T12:52:01.970Z,27.58
2018-08-17T12:55:05.113Z,27.29
2018-08-17T12:58:07.426Z,27.67
2018-08-17T13:01:09.658Z,27.60
2018-08-17T13:04:12.595Z,27.18
2018-08-17T13:07:14.968Z,27.05
2018-08-17T13:10:17.502Z,27.38
2018-08-17T13:13:19.824Z,27.71
2018-08-17T13:16:22.043Z,27.94
2018-08-17T13:19:24.262Z,27.88
2018-08-17T13:22:26.464Z,27.87
2018-08-17T13:25:28.788Z,27.32
2018-08-17T13:28:31.120Z,26.75
2018-08-17T13:31:33.401Z,26.87
2018-08-17T13:34:35.620Z,27.86
2018-08-17T13:37:38.018Z,27.91
2018-08-17T13:40:40.224Z,28.21
2018-08-17T13:43:42.682Z,27.99
2018-08-17T13:46:44.900Z,28.28
2018-08-17T13:49:47.078Z,28.00
2018-08-17T13:52:49.321Z,27.90
2018-08-17T13:55:51.657Z,27.61
2018-08-17T13:58:53.883Z,27.49
2018-08-17T14:01:56.111Z,27.57
2018-08-17T14:04:59.538Z,28.19
2018-08-17T14:08:01.742Z,27.80
2018-08-17T14:11:04.082Z,26.95
2018-08-17T14:14:06.321Z,26.95
2018-08-17T14:17:08.728Z,26.77
2018-08-17T14:20:13.866Z,26.39
2018-08-17T14:23:16.172Z,26.10
2018-08-17T14:26:18.479Z,25.89
2018-08-17T14:29:20.777Z,26.07
2018-08-17T14:32:23.084Z,26.08
2018-08-17T14:35:25.504Z,25.94
2018-08-17T14:38:29.023Z,25.73
2018-08-17T14:41:31.269Z,25.94
2018-08-17T14:44:34.819Z,25.51
2018-08-17T14:51:43.156Z,24.94
2018-08-17T14:54:45.468Z,24.89
2018-08-17T14:57:47.710Z,24.64
2018-08-17T15:00:49.970Z,24.76
2018-08-17T15:03:52.204Z,24.93
2018-08-17T15:06:55.817Z,24.97
2018-08-17T15:09:58.213Z,24.97
2018-08-17T15:13:00.503Z,24.84
2018-08-17T15:16:02.835Z,24.85
2018-08-17T15:19:05.204Z,25.60
2018-08-17T15:22:07.548Z,25.67
2018-08-17T15:25:09.873Z,25.49
2018-08-17T15:28:12.302Z,25.69
2018-08-17T15:31:14.847Z,26.38
2018-08-17T15:34:17.175Z,26.52
2018-08-17T15:37:19.639Z,25.79
2018-08-17T15:40:21.994Z,25.58
2018-08-17T15:43:24.336Z,25.90
2018-08-17T15:46:26.769Z,25.85
2018-08-17T15:49:34.954Z,25.97
2018-08-17T15:52:37.278Z,25.19
2018-08-17T15:55:39.554Z,25.34
2018-08-17T15:58:41.808Z,25.65
2018-08-17T16:01:44.217Z,25.58
2018-08-17T16:04:46.580Z,25.40
2018-08-17T16:07:48.727Z,25.42
2018-08-17T16:10:51.061Z,26.04
2018-08-17T16:13:53.379Z,26.14
2018-08-17T16:16:55.658Z,25.75
2018-08-17T16:19:57.977Z,25.84
2018-08-17T16:23:01.426Z,25.45
2018-08-17T16:26:03.861Z,25.33
2018-08-17T16:29:06.250Z,24.88
2018-08-17T16:32:08.490Z,24.73
2018-08-17T16:35:11.185Z,24.83
2018-08-17T16:38:13.495Z,24.54
2018-08-17T16:41:15.693Z,24.91
2018-08-17T16:44:17.914Z,24.49
2018-08-17T16:47:20.278Z,24.52
2018-08-17T16:50:22.617Z,24.90
2018-08-17T16:53:24.907Z,24.89
2018-08-17T16:56:30.109Z,24.78
2018-08-17T16:59:32.317Z,24.72
2018-08-17T17:02:34.509Z,24.61
2018-08-17T17:05:36.796Z,23.86
2018-08-17T17:08:39.015Z,23.51
2018-08-17T17:11:41.291Z,23.75
2018-08-17T17:14:44.129Z,23.92
2018-08-17T17:17:54.519Z,24.04
2018-08-17T17:20:56.697Z,23.75
2018-08-17T17:23:59.385Z,23.83
2018-08-17T17:27:01.894Z,23.61
2018-08-17T17:30:05.444Z,23.70
2018-08-17T17:33:07.928Z,23.74
2018-08-17T17:36:10.142Z,23.61
2018-08-17T17:39:13.638Z,23.13
2018-08-17T17:42:15.790Z,23.21
2018-08-17T17:45:17.974Z,23.24
2018-08-17T17:48:20.128Z,23.11
2018-08-17T17:51:22.300Z,22.89
2018-08-17T17:54:25.302Z,22.61
2018-08-17T17:57:27.501Z,22.42
2018-08-17T18:00:30.071Z,22.24
2018-08-17T18:03:32.225Z,22.11
2018-08-17T18:06:34.415Z,21.87
2018-08-17T18:09:36.674Z,21.86
2018-08-17T18:12:38.903Z,21.69
2018-08-17T18:15:41.141Z,21.57
2018-08-17T18:18:43.371Z,21.39
2018-08-17T18:21:45.674Z,21.26
2018-08-17T18:24:47.924Z,21.08
2018-08-17T18:27:50.114Z,20.95
2018-08-17T18:30:52.417Z,20.97
2018-08-17T18:33:54.682Z,20.88
2018-08-17T18:36:56.964Z,20.77
2018-08-17T18:39:59.213Z,20.65
2018-08-17T18:43:01.472Z,20.61
2018-08-17T18:46:03.765Z,20.42
2018-08-17T18:49:06.242Z,20.30
2018-08-17T18:52:08.532Z,20.26
2018-08-17T18:55:10.816Z,20.20
2018-08-17T18:58:13.014Z,20.14
2018-08-17T19:01:15.250Z,20.03
2018-08-17T19:04:17.630Z,19.98
2018-08-17T19:07:19.931Z,19.71
2018-08-17T19:10:22.183Z,19.61
2018-08-17T19:13:24.449Z,19.38
2018-08-17T19:16:26.745Z,19.17
2018-08-17T19:19:28.962Z,19.07
2018-08-17T19:22:36.628Z,19.09
2018-08-17T19:25:39.722Z,19.17
2018-08-17T19:28:42.016Z,19.10
2018-08-17T19:31:50.100Z,18.97
2018-08-17T19:34:52.305Z,18.98
2018-08-17T19:37:54.562Z,18.90
2018-08-17T19:40:57.616Z,19.05
2018-08-17T19:43:59.806Z,19.04
2018-08-17T19:47:02.227Z,19.11
2018-08-17T19:50:04.573Z,19.17
2018-08-17T19:53:06.930Z,19.24
2018-08-17T19:56:09.395Z,19.10
2018-08-17T19:59:11.663Z,18.94
2018-08-17T20:02:13.894Z,18.91
2018-08-17T20:05:16.124Z,18.82
2018-08-17T20:08:18.463Z,18.72
2018-08-17T20:11:20.738Z,18.76
2018-08-17T20:14:22.939Z,18.71
2018-08-17T20:17:25.285Z,18.79
2018-08-17T20:20:27.473Z,18.71
2018-08-17T20:23:29.810Z,18.55
2018-08-17T20:26:32.446Z,18.34
2018-08-17T20:29:34.428Z,18.23
2018-08-17T20:32:36.637Z,18.05
2018-08-17T20:35:38.946Z,17.96
2018-08-17T20:38:41.349Z,17.86
2018-08-17T20:41:43.629Z,17.77
2018-08-17T20:44:45.782Z,17.72
2018-08-17T20:47:48.059Z,17.68
2018-08-17T20:50:50.213Z,17.62
2018-08-17T20:53:54.629Z,17.49
2018-08-17T20:56:57.054Z,17.45
2018-08-17T20:59:59.254Z,17.48
2018-08-17T21:03:01.702Z,17.49
2018-08-17T21:06:04.047Z,17.56
2018-08-17T21:09:06.998Z,17.69
2018-08-17T21:12:09.298Z,17.68
2018-08-17T21:15:11.619Z,17.74
2018-08-17T21:18:13.810Z,17.82
2018-08-17T21:21:16.102Z,17.90
2018-08-17T21:24:18.404Z,17.94
2018-08-17T21:27:20.750Z,18.04
2018-08-17T21:30:23.001Z,18.14
2018-08-17T21:33:25.284Z,18.21
2018-08-17T21:36:27.480Z,18.29
2018-08-17T21:39:29.785Z,18.37
2018-08-17T21:42:31.974Z,18.40
2018-08-17T21:45:34.190Z,18.43
2018-08-17T21:48:37.448Z,18.53
2018-08-17T21:51:39.640Z,18.65
2018-08-17T21:54:41.888Z,18.66
2018-08-17T21:57:44.114Z,18.65
2018-08-17T22:00:46.370Z,18.62
2018-08-17T22:03:48.638Z,18.54
2018-08-17T22:06:50.924Z,18.50
2018-08-17T22:09:53.734Z,18.44
2018-08-17T22:12:55.975Z,18.36
2018-08-17T22:15:58.422Z,18.30
2018-08-17T22:19:00.710Z,18.31
2018-08-17T22:22:02.875Z,18.34
2018-08-17T22:25:10.921Z,18.38
2018-08-17T22:28:13.298Z,18.45
2018-08-17T22:31:18.965Z,18.46
2018-08-17T22:34:21.149Z,18.53
2018-08-17T22:37:23.472Z,18.58
2018-08-17T22:40:25.674Z,18.62
2018-08-17T22:43:27.920Z,18.51
2018-08-17T22:46:30.165Z,18.42
2018-08-17T22:49:32.883Z,18.39
2018-08-17T22:52:35.154Z,18.39
2018-08-17T22:55:37.403Z,18.33
2018-08-17T22:58:45.168Z,18.20
2018-08-17T23:01:47.350Z,18.06
2018-08-17T23:04:49.672Z,17.93
2018-08-17T23:07:51.985Z,17.83
2018-08-17T23:10:54.339Z,17.75
2018-08-17T23:13:59.337Z,17.69
2018-08-17T23:17:01.722Z,17.63
2018-08-17T23:20:04.730Z,17.65
2018-08-17T23:23:07.340Z,17.66
2018-08-17T23:26:09.552Z,17.62
2018-08-17T23:29:11.833Z,17.60
2018-08-17T23:32:14.065Z,17.58
2018-08-17T23:35:16.443Z,17.52
2018-08-17T23:38:18.734Z,17.42
2018-08-17T23:41:21.109Z,17.22
2018-08-17T23:44:23.340Z,17.06
2018-08-17T23:47:25.533Z,16.98
2018-08-17T23:50:27.794Z,16.94
2018-08-17T23:53:30.113Z,16.94
2018-08-17T23:56:32.332Z,16.91
2018-08-17T23:59:34.563Z,16.78
